createdAt,value
2019-04-21T00:00:27.975Z,93.25
2019-04-21T00:03:07.367Z,97.75
2019-04-21T00:05:53.249Z,95.75
2019-04-21T00:08:30.902Z,94.00
2019-04-21T00:11:02.999Z,98.00
2019-04-21T00:13:31.355Z,60.75
2019-04-21T00:15:53.846Z,107.50
2019-04-21T00:18:19.552Z,103.50
2019-04-21T00:20:55.183Z,108.00
2019-04-21T00:23:41.328Z,108.25
2019-04-21T00:26:07.594Z,114.00
2019-04-21T00:29:01.994Z,107.25
2019-04-21T00:31:23.030Z,103.50
2019-04-21T00:33:39.859Z,114.25
2019-04-21T00:36:18.072Z,116.25
2019-04-21T00:39:18.624Z,111.25
2019-04-21T00:41:36.792Z,115.00
2019-04-21T00:44:04.549Z,111.00
2019-04-21T00:46:35.182Z,112.00
2019-04-21T00:49:12.475Z,118.50
2019-04-21T00:52:09.335Z,107.75
2019-04-21T00:54:37.387Z,115.50
2019-04-21T00:57:07.995Z,118.75
2019-04-21T00:59:34.854Z,110.25
2019-04-21T01:01:59.731Z,119.50
2019-04-21T01:04:44.906Z,124.00
2019-04-21T01:07:12.475Z,129.00
2019-04-21T01:09:38.534Z,115.75
2019-04-21T01:12:19.505Z,114.25
2019-04-21T01:14:55.355Z,119.25
2019-04-21T01:17:22.505Z,121.25
2019-04-21T01:19:52.306Z,119.50
2019-04-21T01:22:07.995Z,125.25
2019-04-21T01:24:43.084Z,136.00
2019-04-21T01:27:22.678Z,136.00
2019-04-21T01:30:08.500Z,135.75
2019-04-21T01:32:46.985Z,138.75
2019-04-21T01:35:15.052Z,136.00
2019-04-21T01:37:52.437Z,140.50
2019-04-21T01:40:25.663Z,144.75
2019-04-21T01:43:06.123Z,135.25
2019-04-21T01:45:35.547Z,137.00
2019-04-21T01:48:06.412Z,147.25
2019-04-21T01:50:43.802Z,135.00
2019-04-21T01:53:21.007Z,144.50
2019-04-21T01:55:48.375Z,144.50
2019-04-21T01:58:15.913Z,143.75
2019-04-21T02:00:51.971Z,144.25
2019-04-21T02:06:06.348Z,145.00
2019-04-21T02:08:34.589Z,150.75
2019-04-21T02:11:11.278Z,135.75
2019-04-21T02:13:50.226Z,147.25
2019-04-21T02:16:11.274Z,140.00
2019-04-21T02:18:43.753Z,146.00
2019-04-21T02:21:10.831Z,151.25
2019-04-21T02:23:58.669Z,149.75
2019-04-21T02:26:32.061Z,140.00
2019-04-21T02:29:03.177Z,143.75
2019-04-21T02:31:45.199Z,148.25
2019-04-21T02:37:05.285Z,140.50
2019-04-21T02:39:19.266Z,136.75
2019-04-21T02:41:56.126Z,139.50
2019-04-21T02:44:26.449Z,139.50
2019-04-21T02:47:16.998Z,136.75
2019-04-21T02:49:45.364Z,139.25
2019-04-21T02:52:13.368Z,149.50
2019-04-21T02:59:49.874Z,146.50
2019-04-21T03:02:25.753Z,145.25
2019-04-21T03:04:55.311Z,145.00
2019-04-21T03:07:19.979Z,153.25
2019-04-21T03:10:00.123Z,159.00
2019-04-21T03:12:28.617Z,158.00
2019-04-21T03:15:27.349Z,177.75
2019-04-21T03:17:43.806Z,161.25
2019-04-21T03:22:46.222Z,181.25
2019-04-21T03:27:56.942Z,166.50
2019-04-21T03:30:45.692Z,173.00
2019-04-21T03:38:08.022Z,164.25
2019-04-21T03:40:32.624Z,179.25
2019-04-21T03:43:14.494Z,179.00
2019-04-21T03:45:44.451Z,174.50
2019-04-21T03:48:24.247Z,176.50
2019-04-21T03:50:58.798Z,177.75
2019-04-21T03:53:26.636Z,173.75
2019-04-21T04:08:51.490Z,173.00
2019-04-21T04:11:30.026Z,179.25
2019-04-21T04:13:56.313Z,173.75
2019-04-21T04:16:26.892Z,182.00
2019-04-21T04:18:57.763Z,177.00
2019-04-21T04:21:49.369Z,177.00
2019-04-21T04:29:10.831Z,180.25
2019-04-21T04:31:53.180Z,172.50
2019-04-21T04:34:27.516Z,175.50
2019-04-21T04:42:04.985Z,169.75
2019-04-21T04:47:05.511Z,181.00
2019-04-21T04:52:19.265Z,173.25
2019-04-21T05:05:11.467Z,166.75
2019-04-21T05:12:29.388Z,165.75
2019-04-21T05:17:43.583Z,168.00
2019-04-21T05:20:08.900Z,168.00
2019-04-21T05:22:47.716Z,168.25
2019-04-21T05:25:03.720Z,164.25
2019-04-21T05:27:43.531Z,162.75
2019-04-21T05:30:24.850Z,166.75
2019-04-21T05:32:58.436Z,171.00
2019-04-21T05:35:22.857Z,169.25
2019-04-21T05:37:58.293Z,169.50
2019-04-21T05:40:24.878Z,162.50
2019-04-21T05:42:55.449Z,159.50
2019-04-21T05:45:38.716Z,158.25
2019-04-21T05:48:17.287Z,155.75
2019-04-21T05:50:40.066Z,161.50
2019-04-21T05:53:20.893Z,159.25
2019-04-21T05:55:50.224Z,157.75
2019-04-21T05:58:19.644Z,154.25
2019-04-21T06:03:30.720Z,161.00
2019-04-21T06:06:09.991Z,162.75
2019-04-21T06:08:36.198Z,160.00
2019-04-21T06:11:13.077Z,160.25
2019-04-21T06:13:51.561Z,155.50
2019-04-21T06:16:14.374Z,155.25
2019-04-21T06:18:53.095Z,145.75
2019-04-21T06:21:23.580Z,115.75
2019-04-21T06:23:57.785Z,158.00
2019-04-21T06:26:50.305Z,151.00
2019-04-21T06:29:03.974Z,156.00
2019-04-21T06:32:02.019Z,149.75
2019-04-21T06:34:11.516Z,147.75
2019-04-21T06:36:42.695Z,145.50
2019-04-21T06:39:31.744Z,137.00
2019-04-21T06:41:51.620Z,141.00
2019-04-21T06:44:20.421Z,146.00
2019-04-21T06:46:51.686Z,144.00
2019-04-21T06:49:25.023Z,141.75
2019-04-21T06:52:11.412Z,144.50
2019-04-21T06:57:08.707Z,133.75
2019-04-21T06:59:39.060Z,137.25
2019-04-21T07:02:31.881Z,137.25
2019-04-21T07:04:51.800Z,135.25
2019-04-21T07:07:18.913Z,133.00
2019-04-21T07:09:57.253Z,129.25
2019-04-21T07:12:24.452Z,123.00
2019-04-21T07:15:03.544Z,120.00
2019-04-21T07:17:35.724Z,124.25
2019-04-21T07:20:12.216Z,114.50
2019-04-21T07:22:46.088Z,120.50
2019-04-21T07:25:13.842Z,121.25
2019-04-21T07:27:49.052Z,110.00
2019-04-21T07:30:20.902Z,114.25
2019-04-21T07:32:56.537Z,98.00
2019-04-21T07:35:28.534Z,101.25
2019-04-21T07:37:59.328Z,88.75
2019-04-21T07:40:28.706Z,98.75
2019-04-21T07:42:59.805Z,96.50
2019-04-21T07:45:30.174Z,99.75
2019-04-21T07:48:08.286Z,99.25
2019-04-21T07:50:46.347Z,94.25
2019-04-21T07:53:24.337Z,95.25
2019-04-21T07:55:31.754Z,84.50
2019-04-21T07:58:22.511Z,76.50
2019-04-21T08:06:08.430Z,80.75
2019-04-21T08:08:34.291Z,80.25
2019-04-21T08:11:05.499Z,75.25
2019-04-21T08:16:20.381Z,73.50
2019-04-21T08:18:47.245Z,74.25
2019-04-21T08:21:20.668Z,72.25
2019-04-21T08:23:55.437Z,75.25
2019-04-21T08:26:34.144Z,61.75
2019-04-21T08:29:12.629Z,66.20
2019-04-21T08:31:42.647Z,67.60
2019-04-21T08:36:40.304Z,69.20
2019-04-21T08:39:13.496Z,61.60
2019-04-21T08:41:45.192Z,66.00
2019-04-21T08:44:25.624Z,60.60
2019-04-21T08:46:58.893Z,56.80
2019-04-21T08:49:26.437Z,59.80
2019-04-21T08:52:09.942Z,54.40
2019-04-21T08:54:35.090Z,52.20
2019-04-21T08:57:09.090Z,56.40
2019-04-21T08:59:36.124Z,56.20
2019-04-21T09:02:19.816Z,55.40
2019-04-21T09:04:45.833Z,53.80
2019-04-21T09:07:25.412Z,56.00
2019-04-21T09:09:55.839Z,60.80
2019-04-21T09:12:30.997Z,53.80
2019-04-21T09:15:04.101Z,55.40
2019-04-21T09:17:29.973Z,47.40
2019-04-21T09:20:12.650Z,59.80
2019-04-21T09:22:35.748Z,53.80
2019-04-21T09:25:09.100Z,62.00
2019-04-21T09:27:42.796Z,59.00
2019-04-21T09:30:03.504Z,58.20
2019-04-21T09:32:34.809Z,53.40
2019-04-21T09:35:10.277Z,53.00
2019-04-21T09:37:47.329Z,50.60
2019-04-21T09:40:13.963Z,49.20
2019-04-21T09:42:54.193Z,44.80
2019-04-21T09:45:22.131Z,49.80
2019-04-21T09:48:00.865Z,45.40
2019-04-21T09:50:24.361Z,41.20
2019-04-21T09:53:03.846Z,43.00
2019-04-21T09:55:39.002Z,47.60
2019-04-21T09:58:10.108Z,37.20
2019-04-21T10:00:46.170Z,40.40
2019-04-21T10:03:11.665Z,36.20
2019-04-21T10:05:41.600Z,33.80
2019-04-21T10:08:12.920Z,30.80
2019-04-21T10:10:44.483Z,31.20
2019-04-21T10:13:15.629Z,29.20
2019-04-21T10:15:48.543Z,30.40
2019-04-21T10:18:19.762Z,30.40
2019-04-21T10:20:51.310Z,29.80
2019-04-21T10:23:23.305Z,29.40
2019-04-21T10:25:54.837Z,31.40
2019-04-21T10:28:26.870Z,31.00
2019-04-21T10:30:58.549Z,29.20
2019-04-21T10:33:30.354Z,29.00
2019-04-21T10:36:01.658Z,30.80
2019-04-21T10:38:38.908Z,28.20
2019-04-21T10:41:07.611Z,29.80
2019-04-21T10:43:39.157Z,26.60
2019-04-21T10:46:10.786Z,25.00
2019-04-21T10:48:43.142Z,27.20
2019-04-21T10:51:14.856Z,26.60
2019-04-21T10:53:48.255Z,25.00
2019-04-21T10:56:27.191Z,25.80
2019-04-21T10:58:52.281Z,22.80
2019-04-21T11:01:23.461Z,25.60
2019-04-21T11:03:55.093Z,21.20
2019-04-21T11:06:26.600Z,23.20
2019-04-21T11:08:59.989Z,24.40
2019-04-21T11:11:32.008Z,25.40
2019-04-21T11:14:04.367Z,26.20
2019-04-21T11:16:37.208Z,25.20
2019-04-21T11:19:09.508Z,23.00
2019-04-21T11:21:40.908Z,22.80
2019-04-21T11:24:12.401Z,24.40
2019-04-21T11:26:43.529Z,24.20
2019-04-21T11:29:14.930Z,24.80
2019-04-21T11:31:47.315Z,23.80
2019-04-21T11:34:18.824Z,25.00
2019-04-21T11:36:50.635Z,14.40
2019-04-21T11:39:31.636Z,23.20
2019-04-21T11:41:54.999Z,25.80
2019-04-21T11:44:27.028Z,23.80
2019-04-21T11:46:58.417Z,23.60
2019-04-21T11:49:32.028Z,21.60
2019-04-21T11:52:02.990Z,22.80
2019-04-21T11:54:35.060Z,23.60
2019-04-21T11:57:12.514Z,21.40
2019-04-21T11:59:39.767Z,20.40
2019-04-21T12:02:11.990Z,25.80
2019-04-21T12:04:43.576Z,26.40
2019-04-21T12:07:15.477Z,24.80
2019-04-21T12:09:47.868Z,24.20
2019-04-21T12:12:19.199Z,21.00
2019-04-21T12:14:50.347Z,22.20
2019-04-21T12:17:21.593Z,20.40
2019-04-21T12:19:52.978Z,19.60
2019-04-21T12:22:28.955Z,21.60
2019-04-21T12:24:57.515Z,20.00
2019-04-21T12:27:29.925Z,20.80
2019-04-21T12:30:02.084Z,18.80
2019-04-21T12:32:33.836Z,21.60
2019-04-21T12:35:08.118Z,20.60
2019-04-21T12:37:40.684Z,22.40
2019-04-21T12:40:12.856Z,22.20
2019-04-21T12:42:45.458Z,20.00
2019-04-21T12:45:17.395Z,21.20
2019-04-21T12:47:50.678Z,14.40
2019-04-21T12:50:23.494Z,14.40
2019-04-21T12:52:55.838Z,16.20
2019-04-21T12:55:31.533Z,10.20
2019-04-21T12:58:01.411Z,16.40
2019-04-21T13:00:33.408Z,14.40
2019-04-21T13:03:05.803Z,18.60
2019-04-21T13:05:37.896Z,18.60
2019-04-21T13:08:09.294Z,16.20
2019-04-21T13:10:40.629Z,19.00
2019-04-21T13:13:14.836Z,18.60
2019-04-21T13:15:47.221Z,16.60
2019-04-21T13:18:18.622Z,17.40
2019-04-21T13:20:49.863Z,18.40
2019-04-21T13:23:21.197Z,16.80
2019-04-21T13:25:52.311Z,18.40
2019-04-21T13:28:24.829Z,14.00
2019-04-21T13:30:56.266Z,16.60
2019-04-21T13:33:27.500Z,17.80
2019-04-21T13:35:59.254Z,15.40
2019-04-21T13:38:38.703Z,16.80
2019-04-21T13:41:17.518Z,16.60
2019-04-21T13:43:37.376Z,16.00
2019-04-21T13:46:09.871Z,16.40
2019-04-21T13:48:42.522Z,14.00
2019-04-21T13:51:15.301Z,14.60
2019-04-21T13:53:46.642Z,16.60
2019-04-21T13:56:20.407Z,16.80
2019-04-21T13:58:52.644Z,15.80
2019-04-21T14:01:23.943Z,14.60
2019-04-21T14:03:55.603Z,15.80
2019-04-21T14:06:26.755Z,15.00
2019-04-21T14:08:59.031Z,11.60
2019-04-21T14:11:31.403Z,16.00
2019-04-21T14:14:02.775Z,14.20
2019-04-21T14:16:36.108Z,16.00
2019-04-21T14:19:07.691Z,10.80
2019-04-21T14:21:39.163Z,15.00
2019-04-21T14:24:10.901Z,13.40
2019-04-21T14:26:42.473Z,15.80
2019-04-21T14:29:15.543Z,18.00
2019-04-21T14:31:48.096Z,16.80
2019-04-21T14:34:19.960Z,14.80
2019-04-21T14:36:51.166Z,14.60
2019-04-21T14:39:22.915Z,16.00
2019-04-21T14:41:54.252Z,14.20
2019-04-21T14:44:27.118Z,13.80
2019-04-21T14:46:58.572Z,14.60
2019-04-21T14:49:30.971Z,16.40
2019-04-21T14:52:03.233Z,13.40
2019-04-21T14:54:34.333Z,12.80
2019-04-21T14:57:05.667Z,12.20
2019-04-21T14:59:37.299Z,12.20
2019-04-21T15:02:09.842Z,12.80
2019-04-21T15:04:41.753Z,12.60
2019-04-21T15:07:13.179Z,13.80
2019-04-21T15:09:44.695Z,12.20
2019-04-21T15:12:18.273Z,13.80
2019-04-21T15:14:49.910Z,15.80
2019-04-21T15:17:23.023Z,13.00
2019-04-21T15:19:59.792Z,14.00
2019-04-21T15:22:28.325Z,13.20
2019-04-21T15:25:00.631Z,16.60
2019-04-21T15:27:32.776Z,14.60
2019-04-21T15:30:05.007Z,15.40
2019-04-21T15:32:36.764Z,15.20
2019-04-21T15:35:09.175Z,16.00
2019-04-21T15:37:42.076Z,14.60
2019-04-21T15:40:24.094Z,17.00
2019-04-21T15:42:48.438Z,16.00
2019-04-21T15:45:20.992Z,17.20
2019-04-21T15:47:53.948Z,15.60
2019-04-21T15:50:26.513Z,17.00
2019-04-21T15:52:58.258Z,15.40
2019-04-21T15:55:30.774Z,15.20
2019-04-21T15:58:02.715Z,14.80
2019-04-21T16:00:34.336Z,15.00
2019-04-21T16:03:06.684Z,14.40
2019-04-21T16:05:38.119Z,12.40
2019-04-21T16:08:10.144Z,12.80
2019-04-21T16:10:48.937Z,12.20
2019-04-21T16:13:16.024Z,13.00
2019-04-21T16:15:48.427Z,15.60
2019-04-21T16:18:20.484Z,18.60
2019-04-21T16:20:53.713Z,19.20
2019-04-21T16:23:24.872Z,21.20
2019-04-21T16:25:57.041Z,26.20
2019-04-21T16:28:29.017Z,21.60
2019-04-21T16:31:00.588Z,21.40
2019-04-21T16:33:31.679Z,14.40
2019-04-21T16:36:03.180Z,15.40
2019-04-21T16:38:35.488Z,14.60
2019-04-21T16:41:11.613Z,14.20
2019-04-21T16:43:40.993Z,16.20
2019-04-21T16:46:13.644Z,14.20
2019-04-21T16:48:46.012Z,13.00
2019-04-21T16:51:18.208Z,11.00
2019-04-21T16:53:50.292Z,12.60
2019-04-21T16:56:22.640Z,11.60
2019-04-21T16:58:54.735Z,10.80
2019-04-21T17:01:27.643Z,11.00
2019-04-21T17:04:00.308Z,8.80
2019-04-21T17:06:33.166Z,17.20
2019-04-21T17:09:05.239Z,9.40
2019-04-21T17:11:38.034Z,9.00
2019-04-21T17:14:30.067Z,8.40
2019-04-21T17:17:14.191Z,7.60
2019-04-21T17:19:24.137Z,7.40
2019-04-21T17:21:49.883Z,9.20
2019-04-21T17:24:22.192Z,7.20
2019-04-21T17:26:53.663Z,8.80
2019-04-21T17:29:26.322Z,8.80
2019-04-21T17:31:59.441Z,12.60
2019-04-21T17:34:33.708Z,9.40
2019-04-21T17:37:05.529Z,7.20
2019-04-21T17:39:36.882Z,6.60
2019-04-21T17:42:18.542Z,8.00
2019-04-21T17:44:41.298Z,7.60
2019-04-21T17:47:25.359Z,6.40
2019-04-21T17:49:46.736Z,6.80
2019-04-21T17:52:20.325Z,9.80
2019-04-21T17:54:54.320Z,10.20
2019-04-21T17:57:42.619Z,7.60
2019-04-21T18:00:23.954Z,11.00
2019-04-21T18:02:54.770Z,7.80
2019-04-21T18:05:27.586Z,6.00
2019-04-21T18:07:55.866Z,8.80
2019-04-21T18:10:25.757Z,9.00
2019-04-21T18:12:55.543Z,8.80
2019-04-21T18:15:36.332Z,8.60
2019-04-21T18:17:50.485Z,8.60
2019-04-21T18:20:21.946Z,8.80
2019-04-21T18:22:55.016Z,9.80
2019-04-21T18:25:40.348Z,10.40
2019-04-21T18:28:00.743Z,10.40
2019-04-21T18:30:46.580Z,12.40
2019-04-21T18:33:26.617Z,8.00
2019-04-21T18:35:54.378Z,9.20
2019-04-21T18:38:35.326Z,11.00
2019-04-21T18:40:58.415Z,9.20
2019-04-21T18:43:56.731Z,9.60
2019-04-21T18:46:26.053Z,10.80
2019-04-21T18:48:43.691Z,10.00
2019-04-21T18:51:13.933Z,11.00
2019-04-21T18:53:58.031Z,8.80
2019-04-21T18:56:18.634Z,11.60
2019-04-21T18:58:48.715Z,11.20
2019-04-21T19:01:25.926Z,12.20
2019-04-21T19:03:55.975Z,11.40
2019-04-21T19:06:42.350Z,13.80
2019-04-21T19:09:16.794Z,15.00
2019-04-21T19:11:51.854Z,13.40
2019-04-21T19:14:43.136Z,14.40
2019-04-21T19:17:10.727Z,12.40
2019-04-21T19:22:04.894Z,19.80
2019-04-21T19:24:55.620Z,17.80
2019-04-21T19:27:12.141Z,22.00
2019-04-21T19:29:45.239Z,17.60
2019-04-21T19:32:22.135Z,16.60
2019-04-21T19:34:34.766Z,17.40
2019-04-21T19:37:09.331Z,17.60
2019-04-21T19:39:53.034Z,19.80
2019-04-21T19:42:19.578Z,18.00
2019-04-21T19:44:59.329Z,20.80
2019-04-21T19:47:35.456Z,22.00
2019-04-21T19:50:06.197Z,22.20
2019-04-21T19:52:34.071Z,21.60
2019-04-21T19:54:56.761Z,21.80
2019-04-21T19:57:29.384Z,20.00
2019-04-21T20:00:04.250Z,19.20
2019-04-21T20:02:34.369Z,19.40
2019-04-21T20:05:11.602Z,17.60
2019-04-21T20:07:56.036Z,17.00
2019-04-21T20:10:33.253Z,20.00
2019-04-21T20:13:07.237Z,19.60
2019-04-21T20:15:42.225Z,20.00
2019-04-21T20:18:04.732Z,18.00
2019-04-21T20:20:25.210Z,16.80
2019-04-21T20:22:57.566Z,20.00
2019-04-21T20:25:34.366Z,19.60
2019-04-21T20:28:09.542Z,18.20
2019-04-21T20:30:55.687Z,21.40
2019-04-21T20:33:49.291Z,21.00
2019-04-21T20:36:01.302Z,21.00
2019-04-21T20:38:27.584Z,20.20
2019-04-21T20:40:53.585Z,21.60
2019-04-21T20:43:54.592Z,18.20
2019-04-21T20:46:25.359Z,15.60
2019-04-21T20:48:42.170Z,22.00
2019-04-21T20:51:18.282Z,18.80
2019-04-21T20:53:46.479Z,21.00
2019-04-21T20:56:15.633Z,20.80
2019-04-21T20:58:58.390Z,21.00
2019-04-21T21:01:34.712Z,20.60
2019-04-21T21:03:59.216Z,21.80
2019-04-21T21:06:33.686Z,23.00
2019-04-21T21:09:06.871Z,23.40
2019-04-21T21:11:46.728Z,20.40
2019-04-21T21:14:16.131Z,14.80
2019-04-21T21:16:54.983Z,18.40
2019-04-21T21:19:43.972Z,23.80
2019-04-21T21:21:48.657Z,23.80
2019-04-21T21:24:38.311Z,24.60
2019-04-21T21:26:58.055Z,25.80
2019-04-21T21:29:33.522Z,26.80
2019-04-21T21:32:18.512Z,27.60
2019-04-21T21:34:45.388Z,29.40
2019-04-21T21:37:21.246Z,26.80
2019-04-21T21:39:53.454Z,27.40
2019-04-21T21:42:07.175Z,29.40
2019-04-21T21:44:40.771Z,27.00
2019-04-21T21:47:23.993Z,26.60
2019-04-21T21:49:55.463Z,27.80
2019-04-21T21:52:30.481Z,27.00
2019-04-21T21:54:49.699Z,27.40
2019-04-21T21:57:20.968Z,29.40
2019-04-21T21:59:58.856Z,29.60
2019-04-21T22:02:34.933Z,30.60
2019-04-21T22:05:07.586Z,29.60
2019-04-21T22:07:33.715Z,29.20
2019-04-21T22:10:06.429Z,30.20
2019-04-21T22:12:45.716Z,30.20
2019-04-21T22:15:18.581Z,31.40
2019-04-21T22:18:06.068Z,32.40
2019-04-21T22:20:40.128Z,32.60
2019-04-21T22:22:59.002Z,31.40
2019-04-21T22:25:29.536Z,27.00
2019-04-21T22:27:57.904Z,31.20
2019-04-21T22:30:37.098Z,28.80
2019-04-21T22:33:08.342Z,29.00
2019-04-21T22:35:42.605Z,28.00
2019-04-21T22:38:24.737Z,27.60
2019-04-21T22:40:55.949Z,30.20
2019-04-21T22:43:21.699Z,30.00
2019-04-21T22:45:49.406Z,29.00
2019-04-21T22:48:24.594Z,31.80
2019-04-21T22:50:53.792Z,30.40
2019-04-21T22:53:27.992Z,29.80
2019-04-21T22:56:05.757Z,29.00
2019-04-21T22:58:35.730Z,30.00
2019-04-21T23:01:06.134Z,28.40
2019-04-21T23:03:40.153Z,31.40
2019-04-21T23:06:19.484Z,30.60
2019-04-21T23:08:46.136Z,29.50
2019-04-21T23:11:18.116Z,30.80
2019-04-21T23:13:55.620Z,33.00
2019-04-21T23:16:31.529Z,33.75
2019-04-21T23:19:17.276Z,34.50
2019-04-21T23:21:51.531Z,33.75
2019-04-21T23:24:26.459Z,32.75
2019-04-21T23:26:48.645Z,33.00
2019-04-21T23:29:38.791Z,33.25
2019-04-21T23:32:01.913Z,32.50
2019-04-21T23:34:20.815Z,32.00
2019-04-21T23:36:59.024Z,33.50
2019-04-21T23:39:26.529Z,29.60
2019-04-21T23:41:55.899Z,26.20
2019-04-21T23:44:28.224Z,25.75
2019-04-21T23:47:03.474Z,26.75
2019-04-21T23:49:43.054Z,29.00
2019-04-21T23:52:10.097Z,31.00
2019-04-21T23:54:38.530Z,34.50
2019-04-21T23:57:17.011Z,36.25
2019-04-21T23:59:46.868Z,34.75
